sensor_id;sensor_type;location;lat;lon;timestamp;P1;durP1;ratioP1;P2;durP2;ratioP2
7503;SDS011;3793;48.136;11.536;2023-09-12T00:02:17;8.68;;;7.68;;
7503;SDS011;3793;48.136;11.536;2023-09-12T00:04:50;9.27;;;8.18;;
7503;SDS011;3793;48.136;11.536;2023-09-12T00:07:22;9.70;;;7.45;;
7503;SDS011;3793;48.136;11.536;2023-09-12T00:10:03;9.82;;;7.38;;
7503;SDS011;3793;48.136;11.536;2023-09-12T00:12:37;8.18;;;7.38;;
7503;SDS011;3793;48.136;11.536;2023-09-12T00:15:24;7.82;;;6.88;;
7503;SDS011;3793;48.136;11.536;2023-09-12T00:17:58;9.68;;;7.90;;
7503;SDS011;3793;48.136;11.536;2023-09-12T00:23:42;9.15;;;7.97;;
7503;SDS011;3793;48.136;11.536;2023-09-12T00:26:23;8.50;;;7.10;;
7503;SDS011;3793;48.136;11.536;2023-09-12T00:28:55;7.88;;;7.10;;
7503;SDS011;3793;48.136;11.536;2023-09-12T00:31:31;8.95;;;7.78;;
7503;SDS011;3793;48.136;11.536;2023-09-12T00:34:01;8.35;;;7.50;;
7503;SDS011;3793;48.136;11.536;2023-09-12T00:36:31;9.40;;;8.40;;
7503;SDS011;3793;48.136;11.536;2023-09-12T00:39:03;10.25;;;8.40;;
7503;SDS011;3793;48.136;11.536;2023-09-12T00:41:45;8.63;;;7.60;;
7503;SDS011;3793;48.136;11.536;2023-09-12T00:44:15;8.95;;;8.05;;
7503;SDS011;3793;48.136;11.536;2023-09-12T00:46:46;11.45;;;7.47;;
7503;SDS011;3793;48.136;11.536;2023-09-12T00:49:22;10.82;;;7.68;;
7503;SDS011;3793;48.136;11.536;2023-09-12T00:51:51;8.23;;;7.43;;
7503;SDS011;3793;48.136;11.536;2023-09-12T00:54:20;10.23;;;8.05;;
7503;SDS011;3793;48.136;11.536;2023-09-12T00:56:54;9.95;;;8.05;;
7503;SDS011;3793;48.136;11.536;2023-09-12T00:59:26;10.40;;;8.32;;
7503;SDS011;3793;48.136;11.536;2023-09-12T01:01:56;9.32;;;7.72;;
7503;SDS011;3793;48.136;11.536;2023-09-12T01:04:27;10.40;;;8.55;;
7503;SDS011;3793;48.136;11.536;2023-09-12T01:06:58;9.02;;;7.93;;
7503;SDS011;3793;48.136;11.536;2023-09-12T01:09:27;8.35;;;7.55;;
7503;SDS011;3793;48.136;11.536;2023-09-12T01:11:56;9.48;;;8.00;;
7503;SDS011;3793;48.136;11.536;2023-09-12T01:14:23;9.20;;;8.40;;
7503;SDS011;3793;48.136;11.536;2023-09-12T01:16:50;8.50;;;7.70;;
7503;SDS011;3793;48.136;11.536;2023-09-12T01:19:18;11.27;;;8.25;;
7503;SDS011;3793;48.136;11.536;2023-09-12T01:27:42;8.57;;;7.60;;
7503;SDS011;3793;48.136;11.536;2023-09-12T01:30:17;8.98;;;7.63;;
7503;SDS011;3793;48.136;11.536;2023-09-12T01:32:49;10.25;;;7.13;;
7503;SDS011;3793;48.136;11.536;2023-09-12T01:35:16;9.05;;;7.75;;
7503;SDS011;3793;48.136;11.536;2023-09-12T01:37:43;12.63;;;9.40;;
7503;SDS011;3793;48.136;11.536;2023-09-12T01:40:10;10.27;;;8.95;;
7503;SDS011;3793;48.136;11.536;2023-09-12T01:42:40;9.85;;;8.75;;
7503;SDS011;3793;48.136;11.536;2023-09-12T01:45:19;10.57;;;9.48;;
7503;SDS011;3793;48.136;11.536;2023-09-12T01:47:52;9.88;;;8.52;;
7503;SDS011;3793;48.136;11.536;2023-09-12T01:50:26;10.65;;;9.00;;
7503;SDS011;3793;48.136;11.536;2023-09-12T01:52:55;9.88;;;7.85;;
7503;SDS011;3793;48.136;11.536;2023-09-12T01:55:24;10.27;;;9.15;;
7503;SDS011;3793;48.136;11.536;2023-09-12T01:57:53;10.65;;;9.32;;
7503;SDS011;3793;48.136;11.536;2023-09-12T02:00:25;9.65;;;8.20;;
7503;SDS011;3793;48.136;11.536;2023-09-12T02:02:53;9.55;;;8.65;;
7503;SDS011;3793;48.136;11.536;2023-09-12T02:05:20;9.73;;;8.80;;
7503;SDS011;3793;48.136;11.536;2023-09-12T02:07:53;9.45;;;8.45;;
7503;SDS011;3793;48.136;11.536;2023-09-12T02:10:21;12.75;;;9.40;;
7503;SDS011;3793;48.136;11.536;2023-09-12T02:12:48;10.32;;;9.00;;
7503;SDS011;3793;48.136;11.536;2023-09-12T02:15:17;10.18;;;8.57;;
7503;SDS011;3793;48.136;11.536;2023-09-12T02:17:44;9.80;;;8.68;;
7503;SDS011;3793;48.136;11.536;2023-09-12T02:20:11;10.50;;;8.80;;
7503;SDS011;3793;48.136;11.536;2023-09-12T02:22:38;8.80;;;7.90;;
7503;SDS011;3793;48.136;11.536;2023-09-12T02:25:05;9.65;;;8.60;;
7503;SDS011;3793;48.136;11.536;2023-09-12T02:27:33;9.50;;;8.05;;
7503;SDS011;3793;48.136;11.536;2023-09-12T02:30:00;9.45;;;8.30;;
7503;SDS011;3793;48.136;11.536;2023-09-12T02:32:29;9.57;;;7.93;;
7503;SDS011;3793;48.136;11.536;2023-09-12T02:34:57;9.27;;;7.32;;
7503;SDS011;3793;48.136;11.536;2023-09-12T02:37:25;9.50;;;7.50;;
7503;SDS011;3793;48.136;11.536;2023-09-12T02:39:52;9.15;;;7.63;;
7503;SDS011;3793;48.136;11.536;2023-09-12T02:42:18;9.02;;;7.47;;
7503;SDS011;3793;48.136;11.536;2023-09-12T02:44:45;8.57;;;7.70;;
7503;SDS011;3793;48.136;11.536;2023-09-12T02:47:12;8.75;;;7.15;;
7503;SDS011;3793;48.136;11.536;2023-09-12T02:49:41;7.88;;;7.10;;
7503;SDS011;3793;48.136;11.536;2023-09-12T02:52:08;10.23;;;7.53;;
7503;SDS011;3793;48.136;11.536;2023-09-12T02:54:35;8.93;;;8.02;;
7503;SDS011;3793;48.136;11.536;2023-09-12T02:57:02;9.32;;;7.07;;
7503;SDS011;3793;48.136;11.536;2023-09-12T02:59:30;7.70;;;6.95;;
7503;SDS011;3793;48.136;11.536;2023-09-12T03:01:57;9.05;;;7.78;;
7503;SDS011;3793;48.136;11.536;2023-09-12T03:04:24;11.15;;;7.72;;
7503;SDS011;3793;48.136;11.536;2023-09-12T03:06:54;8.90;;;7.40;;
7503;SDS011;3793;48.136;11.536;2023-09-12T03:09:21;9.25;;;7.32;;
7503;SDS011;3793;48.136;11.536;2023-09-12T03:11:49;8.73;;;7.82;;
7503;SDS011;3793;48.136;11.536;2023-09-12T03:14:16;9.82;;;8.10;;
7503;SDS011;3793;48.136;11.536;2023-09-12T03:16:43;8.55;;;7.75;;
7503;SDS011;3793;48.136;11.536;2023-09-12T03:19:10;8.25;;;7.38;;
7503;SDS011;3793;48.136;11.536;2023-09-12T03:21:37;8.27;;;7.43;;
7503;SDS011;3793;48.136;11.536;2023-09-12T03:24:07;8.57;;;7.78;;
7503;SDS011;3793;48.136;11.536;2023-09-12T03:26:35;7.82;;;7.10;;
7503;SDS011;3793;48.136;11.536;2023-09-12T03:29:03;8.52;;;7.72;;
7503;SDS011;3793;48.136;11.536;2023-09-12T03:31:30;9.20;;;8.30;;
7503;SDS011;3793;48.136;11.536;2023-09-12T03:33:57;9.90;;;7.75;;
7503;SDS011;3793;48.136;11.536;2023-09-12T03:36:24;9.25;;;7.57;;
7503;SDS011;3793;48.136;11.536;2023-09-12T03:38:51;8.65;;;7.75;;
7503;SDS011;3793;48.136;11.536;2023-09-12T03:41:20;8.48;;;7.68;;
7503;SDS011;3793;48.136;11.536;2023-09-12T03:43:50;10.82;;;8.38;;
7503;SDS011;3793;48.136;11.536;2023-09-12T03:46:17;9.35;;;8.23;;
7503;SDS011;3793;48.136;11.536;2023-09-12T03:48:44;10.35;;;8.32;;
7503;SDS011;3793;48.136;11.536;2023-09-12T03:51:11;9.50;;;7.82;;
7503;SDS011;3793;48.136;11.536;2023-09-12T03:53:38;10.73;;;8.10;;
7503;SDS011;3793;48.136;11.536;2023-09-12T03:56:05;9.10;;;8.15;;
7503;SDS011;3793;48.136;11.536;2023-09-12T03:58:34;10.52;;;8.68;;
7503;SDS011;3793;48.136;11.536;2023-09-12T04:01:01;10.25;;;8.88;;
7503;SDS011;3793;48.136;11.536;2023-09-12T04:03:28;11.63;;;8.13;;
7503;SDS011;3793;48.136;11.536;2023-09-12T04:05:55;9.48;;;7.68;;
7503;SDS011;3793;48.136;11.536;2023-09-12T04:08:22;10.70;;;8.27;;
7503;SDS011;3793;48.136;11.536;2023-09-12T04:10:49;10.38;;;8.32;;
7503;SDS011;3793;48.136;11.536;2023-09-12T04:13:16;10.07;;;7.78;;
7503;SDS011;3793;48.136;11.536;2023-09-12T04:15:45;8.85;;;7.95;;
7503;SDS011;3793;48.136;11.536;2023-09-12T04:18:13;10.13;;;8.52;;
7503;SDS011;3793;48.136;11.536;2023-09-12T04:20:40;9.02;;;7.80;;
7503;SDS011;3793;48.136;11.536;2023-09-12T04:23:08;9.52;;;7.80;;
7503;SDS011;3793;48.136;11.536;2023-09-12T04:25:35;12.45;;;8.45;;
7503;SDS011;3793;48.136;11.536;2023-09-12T04:28:04;9.93;;;8.43;;
7503;SDS011;3793;48.136;11.536;2023-09-12T04:30:31;8.18;;;7.32;;
7503;SDS011;3793;48.136;11.536;2023-09-12T04:33:00;8.18;;;7.07;;
7503;SDS011;3793;48.136;11.536;2023-09-12T04:35:27;10.52;;;8.77;;
7503;SDS011;3793;48.136;11.536;2023-09-12T04:37:55;8.98;;;8.07;;
7503;SDS011;3793;48.136;11.536;2023-09-12T04:40:23;9.32;;;8.43;;
7503;SDS011;3793;48.136;11.536;2023-09-12T04:42:50;8.85;;;8.05;;
7503;SDS011;3793;48.136;11.536;2023-09-12T04:45:17;9.30;;;8.32;;
7503;SDS011;3793;48.136;11.536;2023-09-12T04:47:46;12.35;;;11.05;;
7503;SDS011;3793;48.136;11.536;2023-09-12T04:50:33;12.10;;;9.75;;
7503;SDS011;3793;48.136;11.536;2023-09-12T04:53:07;12.45;;;9.80;;
7503;SDS011;3793;48.136;11.536;2023-09-12T04:55:35;14.77;;;10.95;;
7503;SDS011;3793;48.136;11.536;2023-09-12T04:58:02;11.88;;;9.88;;
7503;SDS011;3793;48.136;11.536;2023-09-12T05:00:30;12.25;;;9.63;;
7503;SDS011;3793;48.136;11.536;2023-09-12T05:02:58;10.05;;;8.57;;
7503;SDS011;3793;48.136;11.536;2023-09-12T05:05:25;8.43;;;7.63;;
7503;SDS011;3793;48.136;11.536;2023-09-12T05:07:53;18.30;;;8.65;;
7503;SDS011;3793;48.136;11.536;2023-09-12T05:10:20;11.25;;;8.88;;
7503;SDS011;3793;48.136;11.536;2023-09-12T05:12:48;10.10;;;8.00;;
7503;SDS011;3793;48.136;11.536;2023-09-12T05:15:16;12.27;;;8.65;;
7503;SDS011;3793;48.136;11.536;2023-09-12T05:17:43;9.43;;;8.52;;
7503;SDS011;3793;48.136;11.536;2023-09-12T05:20:10;13.77;;;9.38;;
7503;SDS011;3793;48.136;11.536;2023-09-12T05:22:37;9.35;;;8.35;;
7503;SDS011;3793;48.136;11.536;2023-09-12T05:25:07;11.52;;;8.65;;
7503;SDS011;3793;48.136;11.536;2023-09-12T05:27:34;10.80;;;9.52;;
7503;SDS011;3793;48.136;11.536;2023-09-12T05:30:01;14.07;;;8.80;;
7503;SDS011;3793;48.136;11.536;2023-09-12T05:32:28;9.70;;;8.60;;
7503;SDS011;3793;48.136;11.536;2023-09-12T05:34:56;9.88;;;8.57;;
7503;SDS011;3793;48.136;11.536;2023-09-12T05:37:22;12.52;;;9.63;;
7503;SDS011;3793;48.136;11.536;2023-09-12T05:39:49;10.70;;;9.40;;
7503;SDS011;3793;48.136;11.536;2023-09-12T05:42:18;10.15;;;8.65;;
7503;SDS011;3793;48.136;11.536;2023-09-12T05:44:46;9.80;;;8.80;;
7503;SDS011;3793;48.136;11.536;2023-09-12T05:47:14;10.27;;;8.95;;
7503;SDS011;3793;48.136;11.536;2023-09-12T05:49:41;10.52;;;8.73;;
7503;SDS011;3793;48.136;11.536;2023-09-12T05:52:08;11.63;;;8.50;;
7503;SDS011;3793;48.136;11.536;2023-09-12T05:54:36;10.30;;;8.98;;
7503;SDS011;3793;48.136;11.536;2023-09-12T05:57:03;10.13;;;9.02;;
7503;SDS011;3793;48.136;11.536;2023-09-12T05:59:32;10.32;;;9.32;;
7503;SDS011;3793;48.136;11.536;2023-09-12T06:01:59;10.77;;;9.68;;
7503;SDS011;3793;48.136;11.536;2023-09-12T06:04:25;10.35;;;8.90;;
7503;SDS011;3793;48.136;11.536;2023-09-12T06:06:52;11.52;;;8.57;;
7503;SDS011;3793;48.136;11.536;2023-09-12T06:09:19;10.57;;;9.32;;
7503;SDS011;3793;48.136;11.536;2023-09-12T06:11:46;9.85;;;8.80;;
7503;SDS011;3793;48.136;11.536;2023-09-12T06:14:13;10.40;;;9.10;;
7503;SDS011;3793;48.136;11.536;2023-09-12T06:16:41;9.60;;;8.50;;
7503;SDS011;3793;48.136;11.536;2023-09-12T06:19:08;9.90;;;8.02;;
7503;SDS011;3793;48.136;11.536;2023-09-12T06:21:35;9.73;;;8.07;;
7503;SDS011;3793;48.136;11.536;2023-09-12T06:24:09;9.43;;;8.50;;
7503;SDS011;3793;48.136;11.536;2023-09-12T06:26:37;9.30;;;8.27;;
7503;SDS011;3793;48.136;11.536;2023-09-12T06:29:04;11.00;;;8.35;;
7503;SDS011;3793;48.136;11.536;2023-09-12T06:31:31;9.50;;;8.15;;
7503;SDS011;3793;48.136;11.536;2023-09-12T06:34:00;10.80;;;8.63;;
7503;SDS011;3793;48.136;11.536;2023-09-12T06:36:27;8.63;;;7.72;;
7503;SDS011;3793;48.136;11.536;2023-09-12T06:38:55;10.40;;;8.48;;
7503;SDS011;3793;48.136;11.536;2023-09-12T06:41:22;10.27;;;8.40;;
7503;SDS011;3793;48.136;11.536;2023-09-12T06:43:49;10.23;;;7.95;;
7503;SDS011;3793;48.136;11.536;2023-09-12T06:46:16;10.88;;;7.78;;
7503;SDS011;3793;48.136;11.536;2023-09-12T06:48:44;11.90;;;7.88;;
7503;SDS011;3793;48.136;11.536;2023-09-12T06:51:13;10.55;;;7.88;;
7503;SDS011;3793;48.136;11.536;2023-09-12T06:53:41;8.93;;;8.02;;
7503;SDS011;3793;48.136;11.536;2023-09-12T06:56:07;8.98;;;8.07;;
7503;SDS011;3793;48.136;11.536;2023-09-12T06:58:34;8.23;;;6.82;;
7503;SDS011;3793;48.136;11.536;2023-09-12T07:01:02;8.45;;;7.65;;
7503;SDS011;3793;48.136;11.536;2023-09-12T07:03:29;8.63;;;7.57;;
7503;SDS011;3793;48.136;11.536;2023-09-12T07:05:56;13.02;;;8.32;;
7503;SDS011;3793;48.136;11.536;2023-09-12T07:08:25;8.52;;;7.65;;
7503;SDS011;3793;48.136;11.536;2023-09-12T07:10:52;8.65;;;7.55;;
7503;SDS011;3793;48.136;11.536;2023-09-12T07:13:21;9.13;;;7.63;;
7503;SDS011;3793;48.136;11.536;2023-09-12T07:15:49;8.75;;;7.53;;
7503;SDS011;3793;48.136;11.536;2023-09-12T07:18:16;7.90;;;7.10;;
7503;SDS011;3793;48.136;11.536;2023-09-12T07:20:43;9.27;;;8.30;;
7503;SDS011;3793;48.136;11.536;2023-09-12T07:23:10;14.60;;;13.10;;
7503;SDS011;3793;48.136;11.536;2023-09-12T07:25:39;9.43;;;7.45;;
7503;SDS011;3793;48.136;11.536;2023-09-12T07:28:06;9.57;;;7.30;;
7503;SDS011;3793;48.136;11.536;2023-09-12T07:30:33;8.25;;;7.00;;
7503;SDS011;3793;48.136;11.536;2023-09-12T07:33:00;8.18;;;7.10;;
7503;SDS011;3793;48.136;11.536;2023-09-12T07:35:29;9.60;;;7.07;;
7503;SDS011;3793;48.136;11.536;2023-09-12T07:37:56;7.47;;;6.78;;
7503;SDS011;3793;48.136;11.536;2023-09-12T07:40:22;7.13;;;5.93;;
7503;SDS011;3793;48.136;11.536;2023-09-12T07:42:51;8.82;;;6.90;;
7503;SDS011;3793;48.136;11.536;2023-09-12T07:45:23;7.50;;;6.63;;
7503;SDS011;3793;48.136;11.536;2023-09-12T07:47:54;10.32;;;6.97;;
7503;SDS011;3793;48.136;11.536;2023-09-12T07:50:53;9.25;;;7.60;;
7503;SDS011;3793;48.136;11.536;2023-09-12T07:53:52;8.07;;;6.63;;
7503;SDS011;3793;48.136;11.536;2023-09-12T07:56:19;7.15;;;6.45;;
7503;SDS011;3793;48.136;11.536;2023-09-12T07:58:47;6.50;;;5.63;;
7503;SDS011;3793;48.136;11.536;2023-09-12T08:01:14;6.32;;;5.72;;
7503;SDS011;3793;48.136;11.536;2023-09-12T08:03:42;8.20;;;6.47;;
7503;SDS011;3793;48.136;11.536;2023-09-12T08:06:09;7.30;;;6.53;;
7503;SDS011;3793;48.136;11.536;2023-09-12T08:08:37;6.85;;;6.20;;
7503;SDS011;3793;48.136;11.536;2023-09-12T08:11:04;6.75;;;6.15;;
7503;SDS011;3793;48.136;11.536;2023-09-12T08:13:31;7.40;;;6.70;;
7503;SDS011;3793;48.136;11.536;2023-09-12T08:15:59;7.13;;;6.43;;
7503;SDS011;3793;48.136;11.536;2023-09-12T08:18:34;7.72;;;6.53;;
7503;SDS011;3793;48.136;11.536;2023-09-12T08:21:23;7.45;;;5.85;;
7503;SDS011;3793;48.136;11.536;2023-09-12T08:23:57;6.90;;;6.20;;
7503;SDS011;3793;48.136;11.536;2023-09-12T08:26:26;6.30;;;5.60;;
7503;SDS011;3793;48.136;11.536;2023-09-12T08:28:53;7.03;;;6.43;;
7503;SDS011;3793;48.136;11.536;2023-09-12T08:31:22;7.72;;;6.45;;
7503;SDS011;3793;48.136;11.536;2023-09-12T08:33:51;7.30;;;6.22;;
7503;SDS011;3793;48.136;11.536;2023-09-12T08:36:18;6.90;;;5.70;;
7503;SDS011;3793;48.136;11.536;2023-09-12T08:38:45;6.50;;;5.90;;
7503;SDS011;3793;48.136;11.536;2023-09-12T08:41:14;7.65;;;6.55;;
7503;SDS011;3793;48.136;11.536;2023-09-12T08:43:41;6.97;;;6.28;;
7503;SDS011;3793;48.136;11.536;2023-09-12T08:46:08;9.00;;;5.88;;
7503;SDS011;3793;48.136;11.536;2023-09-12T08:48:37;7.20;;;6.50;;
7503;SDS011;3793;48.136;11.536;2023-09-12T08:51:05;7.55;;;6.40;;
7503;SDS011;3793;48.136;11.536;2023-09-12T08:53:33;6.93;;;6.22;;
7503;SDS011;3793;48.136;11.536;2023-09-12T08:56:01;7.18;;;6.47;;
7503;SDS011;3793;48.136;11.536;2023-09-12T08:58:29;8.73;;;6.45;;
7503;SDS011;3793;48.136;11.536;2023-09-12T09:00:56;6.80;;;6.10;;
7503;SDS011;3793;48.136;11.536;2023-09-12T09:03:23;7.18;;;5.80;;
7503;SDS011;3793;48.136;11.536;2023-09-12T09:05:52;6.43;;;5.70;;
7503;SDS011;3793;48.136;11.536;2023-09-12T09:08:20;7.72;;;6.40;;
7503;SDS011;3793;48.136;11.536;2023-09-12T09:10:54;6.93;;;6.07;;
7503;SDS011;3793;48.136;11.536;2023-09-12T09:13:21;6.28;;;5.68;;
7503;SDS011;3793;48.136;11.536;2023-09-12T09:15:48;8.13;;;6.70;;
7503;SDS011;3793;48.136;11.536;2023-09-12T09:18:15;8.07;;;6.63;;
7503;SDS011;3793;48.136;11.536;2023-09-12T09:20:42;6.80;;;6.05;;
7503;SDS011;3793;48.136;11.536;2023-09-12T09:23:15;10.43;;;6.05;;
7503;SDS011;3793;48.136;11.536;2023-09-12T09:25:43;7.25;;;6.45;;
7503;SDS011;3793;48.136;11.536;2023-09-12T09:28:19;7.50;;;5.85;;
7503;SDS011;3793;48.136;11.536;2023-09-12T09:30:47;6.45;;;5.85;;
7503;SDS011;3793;48.136;11.536;2023-09-12T09:33:16;6.70;;;5.72;;
7503;SDS011;3793;48.136;11.536;2023-09-12T09:35:43;12.38;;;6.43;;
7503;SDS011;3793;48.136;11.536;2023-09-12T09:38:12;6.00;;;5.40;;
7503;SDS011;3793;48.136;11.536;2023-09-12T09:40:45;6.75;;;6.05;;
7503;SDS011;3793;48.136;11.536;2023-09-12T09:43:13;6.93;;;6.25;;
7503;SDS011;3793;48.136;11.536;2023-09-12T09:45:46;7.05;;;6.05;;
7503;SDS011;3793;48.136;11.536;2023-09-12T09:48:18;6.43;;;5.82;;
7503;SDS011;3793;48.136;11.536;2023-09-12T09:50:52;8.48;;;6.45;;
7503;SDS011;3793;48.136;11.536;2023-09-12T09:53:25;7.72;;;5.60;;
7503;SDS011;3793;48.136;11.536;2023-09-12T09:56:09;6.90;;;6.03;;
7503;SDS011;3793;48.136;11.536;2023-09-12T09:58:37;6.20;;;5.60;;
7503;SDS011;3793;48.136;11.536;2023-09-12T10:01:09;11.82;;;6.55;;
7503;SDS011;3793;48.136;11.536;2023-09-12T10:03:37;10.23;;;7.35;;
7503;SDS011;3793;48.136;11.536;2023-09-12T10:06:04;6.55;;;5.95;;
7503;SDS011;3793;48.136;11.536;2023-09-12T10:08:31;7.70;;;6.15;;
7503;SDS011;3793;48.136;11.536;2023-09-12T10:10:58;8.05;;;6.90;;
7503;SDS011;3793;48.136;11.536;2023-09-12T10:13:27;6.78;;;6.18;;
7503;SDS011;3793;48.136;11.536;2023-09-12T10:15:57;6.90;;;6.25;;
7503;SDS011;3793;48.136;11.536;2023-09-12T10:18:25;6.80;;;6.05;;
7503;SDS011;3793;48.136;11.536;2023-09-12T10:20:58;6.38;;;5.35;;
7503;SDS011;3793;48.136;11.536;2023-09-12T10:23:33;6.45;;;5.85;;
7503;SDS011;3793;48.136;11.536;2023-09-12T10:26:06;6.45;;;5.85;;
7503;SDS011;3793;48.136;11.536;2023-09-12T10:28:38;6.93;;;6.22;;
7503;SDS011;3793;48.136;11.536;2023-09-12T10:31:05;7.22;;;6.53;;
7503;SDS011;3793;48.136;11.536;2023-09-12T10:33:34;7.15;;;6.45;;
7503;SDS011;3793;48.136;11.536;2023-09-12T10:36:01;6.82;;;5.47;;
7503;SDS011;3793;48.136;11.536;2023-09-12T10:38:30;6.68;;;5.35;;
7503;SDS011;3793;48.136;11.536;2023-09-12T10:40:59;9.02;;;6.07;;
7503;SDS011;3793;48.136;11.536;2023-09-12T10:43:28;6.35;;;5.63;;
7503;SDS011;3793;48.136;11.536;2023-09-12T10:45:58;6.85;;;5.95;;
7503;SDS011;3793;48.136;11.536;2023-09-12T10:48:28;6.55;;;5.57;;
7503;SDS011;3793;48.136;11.536;2023-09-12T10:50:55;6.85;;;5.50;;
7503;SDS011;3793;48.136;11.536;2023-09-12T10:53:23;6.22;;;5.63;;
7503;SDS011;3793;48.136;11.536;2023-09-12T10:55:59;6.45;;;5.85;;
7503;SDS011;3793;48.136;11.536;2023-09-12T10:58:26;6.65;;;5.65;;
7503;SDS011;3793;48.136;11.536;2023-09-12T11:03:53;5.97;;;4.97;;
7503;SDS011;3793;48.136;11.536;2023-09-12T11:06:20;6.18;;;5.53;;
7503;SDS011;3793;48.136;11.536;2023-09-12T11:11:45;6.88;;;5.72;;
7503;SDS011;3793;48.136;11.536;2023-09-12T11:14:13;8.70;;;6.30;;
7503;SDS011;3793;48.136;11.536;2023-09-12T11:16:43;7.38;;;6.68;;
7503;SDS011;3793;48.136;11.536;2023-09-12T11:19:49;5.97;;;5.35;;
7503;SDS011;3793;48.136;11.536;2023-09-12T11:22:22;6.10;;;5.30;;
7503;SDS011;3793;48.136;11.536;2023-09-12T11:24:53;6.30;;;5.43;;
7503;SDS011;3793;48.136;11.536;2023-09-12T11:27:23;6.43;;;5.18;;
7503;SDS011;3793;48.136;11.536;2023-09-12T11:29:59;6.82;;;5.25;;
7503;SDS011;3793;48.136;11.536;2023-09-12T11:32:32;6.32;;;5.70;;
7503;SDS011;3793;48.136;11.536;2023-09-12T11:34:59;6.38;;;5.38;;
7503;SDS011;3793;48.136;11.536;2023-09-12T11:37:32;7.28;;;5.88;;
7503;SDS011;3793;48.136;11.536;2023-09-12T11:40:02;6.20;;;5.15;;
7503;SDS011;3793;48.136;11.536;2023-09-12T11:42:29;5.75;;;5.20;;
7503;SDS011;3793;48.136;11.536;2023-09-12T11:44:56;6.35;;;5.63;;
7503;SDS011;3793;48.136;11.536;2023-09-12T11:47:25;9.27;;;5.00;;
7503;SDS011;3793;48.136;11.536;2023-09-12T11:49:54;9.23;;;5.50;;
7503;SDS011;3793;48.136;11.536;2023-09-12T11:52:21;5.88;;;5.28;;
7503;SDS011;3793;48.136;11.536;2023-09-12T11:54:48;6.20;;;5.38;;
7503;SDS011;3793;48.136;11.536;2023-09-12T11:57:18;6.85;;;5.15;;
7503;SDS011;3793;48.136;11.536;2023-09-12T11:59:45;7.05;;;5.38;;
7503;SDS011;3793;48.136;11.536;2023-09-12T12:02:13;6.07;;;5.47;;
7503;SDS011;3793;48.136;11.536;2023-09-12T12:04:40;7.32;;;5.63;;
7503;SDS011;3793;48.136;11.536;2023-09-12T12:07:09;6.22;;;4.75;;
7503;SDS011;3793;48.136;11.536;2023-09-12T12:09:40;7.10;;;5.40;;
7503;SDS011;3793;48.136;11.536;2023-09-12T12:12:11;8.35;;;4.95;;
7503;SDS011;3793;48.136;11.536;2023-09-12T12:14:39;6.20;;;5.60;;
7503;SDS011;3793;48.136;11.536;2023-09-12T12:17:07;5.70;;;5.20;;
7503;SDS011;3793;48.136;11.536;2023-09-12T12:19:35;7.35;;;5.63;;
7503;SDS011;3793;48.136;11.536;2023-09-12T12:22:03;6.65;;;5.47;;
7503;SDS011;3793;48.136;11.536;2023-09-12T12:24:40;5.57;;;5.05;;
7503;SDS011;3793;48.136;11.536;2023-09-12T12:27:08;6.32;;;5.60;;
7503;SDS011;3793;48.136;11.536;2023-09-12T12:29:36;6.35;;;5.03;;
7503;SDS011;3793;48.136;11.536;2023-09-12T12:32:07;6.30;;;5.30;;
7503;SDS011;3793;48.136;11.536;2023-09-12T12:35:05;6.15;;;4.93;;
7503;SDS011;3793;48.136;11.536;2023-09-12T12:37:42;7.20;;;5.57;;
7503;SDS011;3793;48.136;11.536;2023-09-12T12:40:27;6.72;;;4.85;;
7503;SDS011;3793;48.136;11.536;2023-09-12T12:51:30;6.15;;;5.55;;
7503;SDS011;3793;48.136;11.536;2023-09-12T12:54:11;6.47;;;5.47;;
7503;SDS011;3793;48.136;11.536;2023-09-12T12:56:57;7.00;;;5.80;;
7503;SDS011;3793;48.136;11.536;2023-09-12T12:59:31;8.13;;;5.75;;
7503;SDS011;3793;48.136;11.536;2023-09-12T13:02:11;7.85;;;4.72;;
7503;SDS011;3793;48.136;11.536;2023-09-12T13:04:37;6.05;;;5.45;;
7503;SDS011;3793;48.136;11.536;2023-09-12T13:07:07;6.50;;;5.05;;
7503;SDS011;3793;48.136;11.536;2023-09-12T13:09:42;5.60;;;4.88;;
7503;SDS011;3793;48.136;11.536;2023-09-12T13:12:15;5.28;;;4.80;;
7503;SDS011;3793;48.136;11.536;2023-09-12T13:14:56;5.78;;;5.18;;
7503;SDS011;3793;48.136;11.536;2023-09-12T13:17:29;5.28;;;4.78;;
7503;SDS011;3793;48.136;11.536;2023-09-12T13:20:17;4.90;;;4.15;;
7503;SDS011;3793;48.136;11.536;2023-09-12T13:22:54;8.00;;;4.68;;
7503;SDS011;3793;48.136;11.536;2023-09-12T13:25:22;6.88;;;4.75;;
7503;SDS011;3793;48.136;11.536;2023-09-12T13:27:52;5.93;;;4.90;;
7503;SDS011;3793;48.136;11.536;2023-09-12T13:30:26;6.65;;;5.00;;
7503;SDS011;3793;48.136;11.536;2023-09-12T13:32:53;6.78;;;4.72;;
7503;SDS011;3793;48.136;11.536;2023-09-12T13:38:21;5.43;;;4.90;;
7503;SDS011;3793;48.136;11.536;2023-09-12T13:40:48;6.63;;;4.07;;
7503;SDS011;3793;48.136;11.536;2023-09-12T13:43:17;5.55;;;4.93;;
7503;SDS011;3793;48.136;11.536;2023-09-12T13:45:45;7.88;;;4.80;;
7503;SDS011;3793;48.136;11.536;2023-09-12T13:48:12;5.85;;;4.45;;
7503;SDS011;3793;48.136;11.536;2023-09-12T13:50:39;4.93;;;4.20;;
7503;SDS011;3793;48.136;11.536;2023-09-12T13:53:09;5.22;;;4.68;;
7503;SDS011;3793;48.136;11.536;2023-09-12T13:55:36;5.65;;;5.00;;
7503;SDS011;3793;48.136;11.536;2023-09-12T13:58:13;7.93;;;5.05;;
7503;SDS011;3793;48.136;11.536;2023-09-12T14:01:03;7.63;;;5.00;;
7503;SDS011;3793;48.136;11.536;2023-09-12T14:03:30;8.80;;;5.20;;
7503;SDS011;3793;48.136;11.536;2023-09-12T14:05:58;8.55;;;5.40;;
7503;SDS011;3793;48.136;11.536;2023-09-12T14:08:24;5.95;;;5.05;;
7503;SDS011;3793;48.136;11.536;2023-09-12T14:10:51;8.70;;;5.55;;
7503;SDS011;3793;48.136;11.536;2023-09-12T14:13:19;6.10;;;5.32;;
7503;SDS011;3793;48.136;11.536;2023-09-12T14:15:47;6.55;;;5.45;;
7503;SDS011;3793;48.136;11.536;2023-09-12T14:18:16;10.90;;;5.43;;
7503;SDS011;3793;48.136;11.536;2023-09-12T14:20:43;10.77;;;5.88;;
7503;SDS011;3793;48.136;11.536;2023-09-12T14:23:11;8.50;;;5.53;;
7503;SDS011;3793;48.136;11.536;2023-09-12T14:25:38;5.60;;;5.10;;
7503;SDS011;3793;48.136;11.536;2023-09-12T14:28:05;5.38;;;4.85;;
7503;SDS011;3793;48.136;11.536;2023-09-12T14:30:36;7.35;;;5.30;;
7503;SDS011;3793;48.136;11.536;2023-09-12T14:33:09;6.70;;;4.78;;
7503;SDS011;3793;48.136;11.536;2023-09-12T14:35:38;7.75;;;5.05;;
7503;SDS011;3793;48.136;11.536;2023-09-12T14:38:06;5.40;;;5.00;;
7503;SDS011;3793;48.136;11.536;2023-09-12T14:40:33;5.95;;;5.35;;
7503;SDS011;3793;48.136;11.536;2023-09-12T14:43:00;9.60;;;4.95;;
7503;SDS011;3793;48.136;11.536;2023-09-12T14:45:28;8.02;;;5.65;;
7503;SDS011;3793;48.136;11.536;2023-09-12T14:48:08;8.70;;;5.88;;
7503;SDS011;3793;48.136;11.536;2023-09-12T14:50:35;6.95;;;5.78;;
7503;SDS011;3793;48.136;11.536;2023-09-12T14:53:07;7.00;;;5.55;;
7503;SDS011;3793;48.136;11.536;2023-09-12T14:55:35;8.35;;;5.63;;
7503;SDS011;3793;48.136;11.536;2023-09-12T14:58:03;7.13;;;5.70;;
7503;SDS011;3793;48.136;11.536;2023-09-12T15:00:35;6.90;;;5.65;;
7503;SDS011;3793;48.136;11.536;2023-09-12T15:03:14;7.63;;;5.97;;
7503;SDS011;3793;48.136;11.536;2023-09-12T15:05:54;6.53;;;5.82;;
7503;SDS011;3793;48.136;11.536;2023-09-12T15:08:35;7.88;;;6.03;;
7503;SDS011;3793;48.136;11.536;2023-09-12T15:11:04;6.60;;;5.97;;
7503;SDS011;3793;48.136;11.536;2023-09-12T15:13:37;11.60;;;6.15;;
7503;SDS011;3793;48.136;11.536;2023-09-12T15:16:14;8.40;;;5.63;;
7503;SDS011;3793;48.136;11.536;2023-09-12T15:18:44;7.28;;;6.07;;
7503;SDS011;3793;48.136;11.536;2023-09-12T15:21:29;6.22;;;5.63;;
7503;SDS011;3793;48.136;11.536;2023-09-12T15:24:02;9.10;;;6.00;;
7503;SDS011;3793;48.136;11.536;2023-09-12T15:26:37;5.82;;;5.30;;
7503;SDS011;3793;48.136;11.536;2023-09-12T15:29:04;8.85;;;6.13;;
7503;SDS011;3793;48.136;11.536;2023-09-12T15:31:48;6.05;;;5.45;;
7503;SDS011;3793;48.136;11.536;2023-09-12T15:34:31;6.50;;;5.75;;
7503;SDS011;3793;48.136;11.536;2023-09-12T15:37:17;8.20;;;5.88;;
7503;SDS011;3793;48.136;11.536;2023-09-12T15:39:52;8.68;;;5.88;;
7503;SDS011;3793;48.136;11.536;2023-09-12T15:42:30;8.77;;;6.40;;